sensor_id;sensor_type;location;lat;lon;timestamp;P1;durP1;ratioP1;P2;durP2;ratioP2
33074;SDS011;19433;51.292;6.868;2023-08-06T00:00:27;3.97;;;1.90;;
33074;SDS011;19433;51.292;6.868;2023-08-06T00:02:52;1.87;;;1.77;;
33074;SDS011;19433;51.292;6.868;2023-08-06T00:05:18;2.90;;;2.03;;
33074;SDS011;19433;51.292;6.868;2023-08-06T00:07:45;3.23;;;2.90;;
33074;SDS011;19433;51.292;6.868;2023-08-06T00:10:12;2.57;;;2.37;;
33074;SDS011;19433;51.292;6.868;2023-08-06T00:12:37;3.30;;;2.77;;
33074;SDS011;19433;51.292;6.868;2023-08-06T00:15:03;2.07;;;1.97;;
33074;SDS011;19433;51.292;6.868;2023-08-06T00:17:28;2.77;;;2.10;;
33074;SDS011;19433;51.292;6.868;2023-08-06T00:19:53;4.67;;;2.67;;
33074;SDS011;19433;51.292;6.868;2023-08-06T00:22:19;3.10;;;2.73;;
33074;SDS011;19433;51.292;6.868;2023-08-06T00:24:44;2.33;;;2.13;;
33074;SDS011;19433;51.292;6.868;2023-08-06T00:27:09;3.40;;;2.00;;
33074;SDS011;19433;51.292;6.868;2023-08-06T00:29:34;4.40;;;2.40;;
33074;SDS011;19433;51.292;6.868;2023-08-06T00:32:00;2.10;;;2.00;;
33074;SDS011;19433;51.292;6.868;2023-08-06T00:34:25;2.60;;;2.40;;
33074;SDS011;19433;51.292;6.868;2023-08-06T00:36:50;3.33;;;2.57;;
33074;SDS011;19433;51.292;6.868;2023-08-06T00:39:15;2.67;;;2.40;;
33074;SDS011;19433;51.292;6.868;2023-08-06T00:41:41;2.40;;;2.20;;
33074;SDS011;19433;51.292;6.868;2023-08-06T00:44:06;2.00;;;1.90;;
33074;SDS011;19433;51.292;6.868;2023-08-06T00:46:32;2.93;;;2.70;;
33074;SDS011;19433;51.292;6.868;2023-08-06T00:48:58;2.50;;;2.30;;
33074;SDS011;19433;51.292;6.868;2023-08-06T00:51:24;4.70;;;3.37;;
33074;SDS011;19433;51.292;6.868;2023-08-06T00:53:50;3.07;;;2.27;;
33074;SDS011;19433;51.292;6.868;2023-08-06T00:56:17;2.93;;;2.33;;
33074;SDS011;19433;51.292;6.868;2023-08-06T00:58:44;2.47;;;2.27;;
33074;SDS011;19433;51.292;6.868;2023-08-06T01:01:10;4.90;;;2.27;;
33074;SDS011;19433;51.292;6.868;2023-08-06T01:03:35;2.50;;;2.30;;
33074;SDS011;19433;51.292;6.868;2023-08-06T01:06:01;2.60;;;2.40;;
33074;SDS011;19433;51.292;6.868;2023-08-06T01:11:21;4.17;;;2.30;;
33074;SDS011;19433;51.292;6.868;2023-08-06T01:14:16;2.40;;;2.20;;
33074;SDS011;19433;51.292;6.868;2023-08-06T01:16:53;2.53;;;2.33;;
33074;SDS011;19433;51.292;6.868;2023-08-06T01:19:20;3.00;;;2.00;;
33074;SDS011;19433;51.292;6.868;2023-08-06T01:21:46;3.43;;;2.67;;
33074;SDS011;19433;51.292;6.868;2023-08-06T01:24:11;2.13;;;2.03;;
33074;SDS011;19433;51.292;6.868;2023-08-06T01:27:01;2.40;;;2.20;;
33074;SDS011;19433;51.292;6.868;2023-08-06T01:29:31;2.40;;;2.20;;
33074;SDS011;19433;51.292;6.868;2023-08-06T01:31:58;2.60;;;2.40;;
33074;SDS011;19433;51.292;6.868;2023-08-06T01:34:25;3.83;;;2.53;;
33074;SDS011;19433;51.292;6.868;2023-08-06T01:36:53;2.40;;;2.20;;
33074;SDS011;19433;51.292;6.868;2023-08-06T01:39:19;3.20;;;3.00;;
33074;SDS011;19433;51.292;6.868;2023-08-06T01:41:46;2.70;;;2.33;;
33074;SDS011;19433;51.292;6.868;2023-08-06T01:44:12;2.17;;;1.97;;
33074;SDS011;19433;51.292;6.868;2023-08-06T01:46:37;2.70;;;2.50;;
33074;SDS011;19433;51.292;6.868;2023-08-06T01:49:02;2.70;;;2.50;;
33074;SDS011;19433;51.292;6.868;2023-08-06T01:51:28;3.73;;;2.10;;
33074;SDS011;19433;51.292;6.868;2023-08-06T01:53:53;2.23;;;2.13;;
33074;SDS011;19433;51.292;6.868;2023-08-06T01:56:18;3.00;;;2.50;;
33074;SDS011;19433;51.292;6.868;2023-08-06T01:58:43;2.23;;;2.13;;
33074;SDS011;19433;51.292;6.868;2023-08-06T02:01:09;2.30;;;2.20;;
33074;SDS011;19433;51.292;6.868;2023-08-06T02:03:34;3.30;;;2.50;;
33074;SDS011;19433;51.292;6.868;2023-08-06T02:05:59;2.20;;;2.10;;
33074;SDS011;19433;51.292;6.868;2023-08-06T02:08:25;2.93;;;2.60;;
33074;SDS011;19433;51.292;6.868;2023-08-06T02:10:50;2.33;;;2.23;;
33074;SDS011;19433;51.292;6.868;2023-08-06T02:13:15;2.97;;;2.77;;
33074;SDS011;19433;51.292;6.868;2023-08-06T02:15:44;2.50;;;2.30;;
33074;SDS011;19433;51.292;6.868;2023-08-06T02:18:12;3.70;;;2.53;;
33074;SDS011;19433;51.292;6.868;2023-08-06T02:20:37;5.00;;;2.27;;
33074;SDS011;19433;51.292;6.868;2023-08-06T02:23:03;2.67;;;2.43;;
33074;SDS011;19433;51.292;6.868;2023-08-06T02:25:28;1.80;;;1.70;;
33074;SDS011;19433;51.292;6.868;2023-08-06T02:27:53;2.13;;;2.03;;
33074;SDS011;19433;51.292;6.868;2023-08-06T02:30:18;2.30;;;2.20;;
33074;SDS011;19433;51.292;6.868;2023-08-06T02:32:44;4.57;;;2.23;;
33074;SDS011;19433;51.292;6.868;2023-08-06T02:35:09;2.83;;;2.00;;
33074;SDS011;19433;51.292;6.868;2023-08-06T02:37:36;2.43;;;2.20;;
33074;SDS011;19433;51.292;6.868;2023-08-06T02:40:01;2.30;;;1.80;;
33074;SDS011;19433;51.292;6.868;2023-08-06T02:42:27;2.27;;;2.07;;
33074;SDS011;19433;51.292;6.868;2023-08-06T02:44:52;2.67;;;2.47;;
33074;SDS011;19433;51.292;6.868;2023-08-06T02:47:21;2.17;;;2.07;;
33074;SDS011;19433;51.292;6.868;2023-08-06T02:49:46;2.50;;;2.30;;
33074;SDS011;19433;51.292;6.868;2023-08-06T02:52:12;2.70;;;2.50;;
33074;SDS011;19433;51.292;6.868;2023-08-06T02:54:37;2.60;;;2.40;;
33074;SDS011;19433;51.292;6.868;2023-08-06T02:57:03;2.40;;;2.17;;
33074;SDS011;19433;51.292;6.868;2023-08-06T02:59:29;2.73;;;2.53;;
33074;SDS011;19433;51.292;6.868;2023-08-06T03:01:55;2.30;;;2.10;;
33074;SDS011;19433;51.292;6.868;2023-08-06T03:04:20;2.23;;;2.13;;
33074;SDS011;19433;51.292;6.868;2023-08-06T03:06:45;2.63;;;2.20;;
33074;SDS011;19433;51.292;6.868;2023-08-06T03:09:10;2.77;;;2.57;;
33074;SDS011;19433;51.292;6.868;2023-08-06T03:11:36;2.70;;;2.43;;
33074;SDS011;19433;51.292;6.868;2023-08-06T03:14:01;2.47;;;2.33;;
33074;SDS011;19433;51.292;6.868;2023-08-06T03:16:26;2.40;;;2.17;;
33074;SDS011;19433;51.292;6.868;2023-08-06T03:18:52;2.50;;;2.30;;
33074;SDS011;19433;51.292;6.868;2023-08-06T03:21:17;2.50;;;2.30;;
33074;SDS011;19433;51.292;6.868;2023-08-06T03:23:42;2.40;;;2.30;;
33074;SDS011;19433;51.292;6.868;2023-08-06T03:26:07;2.30;;;2.20;;
33074;SDS011;19433;51.292;6.868;2023-08-06T03:28:33;2.40;;;2.20;;
33074;SDS011;19433;51.292;6.868;2023-08-06T03:31:01;2.70;;;2.50;;
33074;SDS011;19433;51.292;6.868;2023-08-06T03:33:27;2.53;;;2.33;;
33074;SDS011;19433;51.292;6.868;2023-08-06T03:35:53;2.50;;;2.30;;
33074;SDS011;19433;51.292;6.868;2023-08-06T03:38:18;3.73;;;2.30;;
33074;SDS011;19433;51.292;6.868;2023-08-06T03:40:44;2.00;;;1.90;;
33074;SDS011;19433;51.292;6.868;2023-08-06T03:43:09;2.60;;;2.20;;
33074;SDS011;19433;51.292;6.868;2023-08-06T03:45:34;3.50;;;2.57;;
33074;SDS011;19433;51.292;6.868;2023-08-06T03:47:59;2.80;;;2.30;;
33074;SDS011;19433;51.292;6.868;2023-08-06T03:50:25;5.17;;;2.00;;
33074;SDS011;19433;51.292;6.868;2023-08-06T03:52:50;2.30;;;2.10;;
33074;SDS011;19433;51.292;6.868;2023-08-06T03:55:15;2.23;;;2.03;;
33074;SDS011;19433;51.292;6.868;2023-08-06T03:57:40;2.57;;;2.47;;
33074;SDS011;19433;51.292;6.868;2023-08-06T04:00:06;2.30;;;2.10;;
33074;SDS011;19433;51.292;6.868;2023-08-06T04:02:32;2.73;;;2.30;;
33074;SDS011;19433;51.292;6.868;2023-08-06T04:04:57;2.27;;;2.07;;
33074;SDS011;19433;51.292;6.868;2023-08-06T04:07:24;2.30;;;2.10;;
33074;SDS011;19433;51.292;6.868;2023-08-06T04:09:53;2.83;;;1.70;;
33074;SDS011;19433;51.292;6.868;2023-08-06T04:12:25;2.97;;;2.17;;
33074;SDS011;19433;51.292;6.868;2023-08-06T04:14:51;2.30;;;2.20;;
33074;SDS011;19433;51.292;6.868;2023-08-06T04:17:17;2.80;;;2.60;;
33074;SDS011;19433;51.292;6.868;2023-08-06T04:19:45;1.90;;;1.80;;
33074;SDS011;19433;51.292;6.868;2023-08-06T04:22:20;3.27;;;2.37;;
33074;SDS011;19433;51.292;6.868;2023-08-06T04:24:46;2.13;;;2.00;;
33074;SDS011;19433;51.292;6.868;2023-08-06T04:27:12;2.50;;;2.40;;
33074;SDS011;19433;51.292;6.868;2023-08-06T04:29:39;2.10;;;2.00;;
33074;SDS011;19433;51.292;6.868;2023-08-06T04:32:05;2.47;;;2.27;;
33074;SDS011;19433;51.292;6.868;2023-08-06T04:34:32;5.60;;;2.33;;
33074;SDS011;19433;51.292;6.868;2023-08-06T04:36:58;3.10;;;2.43;;
33074;SDS011;19433;51.292;6.868;2023-08-06T04:39:24;2.80;;;2.20;;
33074;SDS011;19433;51.292;6.868;2023-08-06T04:41:49;1.80;;;1.70;;
33074;SDS011;19433;51.292;6.868;2023-08-06T04:44:15;2.13;;;2.03;;
33074;SDS011;19433;51.292;6.868;2023-08-06T04:46:40;6.90;;;2.40;;
33074;SDS011;19433;51.292;6.868;2023-08-06T04:49:05;2.20;;;2.00;;
33074;SDS011;19433;51.292;6.868;2023-08-06T04:51:31;4.40;;;2.23;;
33074;SDS011;19433;51.292;6.868;2023-08-06T04:53:56;2.03;;;1.80;;
33074;SDS011;19433;51.292;6.868;2023-08-06T04:56:22;5.10;;;2.33;;
33074;SDS011;19433;51.292;6.868;2023-08-06T04:58:48;1.70;;;1.60;;
33074;SDS011;19433;51.292;6.868;2023-08-06T05:01:13;2.47;;;2.27;;
33074;SDS011;19433;51.292;6.868;2023-08-06T05:03:39;1.93;;;1.83;;
33074;SDS011;19433;51.292;6.868;2023-08-06T05:06:04;2.20;;;2.00;;
33074;SDS011;19433;51.292;6.868;2023-08-06T05:08:29;2.50;;;2.00;;
33074;SDS011;19433;51.292;6.868;2023-08-06T05:10:55;2.17;;;1.97;;
33074;SDS011;19433;51.292;6.868;2023-08-06T05:13:20;5.33;;;2.20;;
33074;SDS011;19433;51.292;6.868;2023-08-06T05:15:45;2.10;;;1.70;;
33074;SDS011;19433;51.292;6.868;2023-08-06T05:18:11;2.47;;;2.27;;
33074;SDS011;19433;51.292;6.868;2023-08-06T05:20:40;2.07;;;1.97;;
33074;SDS011;19433;51.292;6.868;2023-08-06T05:23:07;2.87;;;2.30;;
33074;SDS011;19433;51.292;6.868;2023-08-06T05:25:34;1.80;;;1.70;;
33074;SDS011;19433;51.292;6.868;2023-08-06T05:27:59;2.97;;;2.10;;
33074;SDS011;19433;51.292;6.868;2023-08-06T05:30:26;2.30;;;1.90;;
33074;SDS011;19433;51.292;6.868;2023-08-06T05:32:51;2.80;;;2.10;;
33074;SDS011;19433;51.292;6.868;2023-08-06T05:35:17;2.10;;;1.90;;
33074;SDS011;19433;51.292;6.868;2023-08-06T05:37:42;1.60;;;1.50;;
33074;SDS011;19433;51.292;6.868;2023-08-06T05:40:07;2.23;;;2.03;;
33074;SDS011;19433;51.292;6.868;2023-08-06T05:42:33;2.57;;;2.37;;
33074;SDS011;19433;51.292;6.868;2023-08-06T05:44:58;2.90;;;1.90;;
33074;SDS011;19433;51.292;6.868;2023-08-06T05:47:23;1.80;;;1.70;;
33074;SDS011;19433;51.292;6.868;2023-08-06T05:49:49;2.47;;;2.27;;
33074;SDS011;19433;51.292;6.868;2023-08-06T05:52:14;2.40;;;2.27;;
33074;SDS011;19433;51.292;6.868;2023-08-06T05:54:39;3.50;;;1.90;;
33074;SDS011;19433;51.292;6.868;2023-08-06T05:57:05;1.80;;;1.70;;
33074;SDS011;19433;51.292;6.868;2023-08-06T05:59:31;2.40;;;1.73;;
33074;SDS011;19433;51.292;6.868;2023-08-06T06:01:56;1.97;;;1.87;;
33074;SDS011;19433;51.292;6.868;2023-08-06T06:04:21;1.87;;;1.77;;
33074;SDS011;19433;51.292;6.868;2023-08-06T06:06:47;1.43;;;1.33;;
33074;SDS011;19433;51.292;6.868;2023-08-06T06:09:12;2.10;;;1.90;;
33074;SDS011;19433;51.292;6.868;2023-08-06T06:11:37;2.00;;;1.60;;
33074;SDS011;19433;51.292;6.868;2023-08-06T06:14:03;2.17;;;1.27;;
33074;SDS011;19433;51.292;6.868;2023-08-06T06:16:28;2.17;;;1.60;;
33074;SDS011;19433;51.292;6.868;2023-08-06T06:18:53;1.43;;;1.10;;
33074;SDS011;19433;51.292;6.868;2023-08-06T06:21:19;1.70;;;1.23;;
33074;SDS011;19433;51.292;6.868;2023-08-06T06:23:45;1.73;;;1.30;;
33074;SDS011;19433;51.292;6.868;2023-08-06T06:26:10;1.17;;;1.00;;
33074;SDS011;19433;51.292;6.868;2023-08-06T06:28:35;4.33;;;1.60;;
33074;SDS011;19433;51.292;6.868;2023-08-06T06:31:01;1.73;;;1.10;;
33074;SDS011;19433;51.292;6.868;2023-08-06T06:33:27;2.37;;;1.20;;
33074;SDS011;19433;51.292;6.868;2023-08-06T06:35:53;1.90;;;1.80;;
33074;SDS011;19433;51.292;6.868;2023-08-06T06:38:18;1.30;;;1.20;;
33074;SDS011;19433;51.292;6.868;2023-08-06T06:40:44;2.80;;;1.60;;
33074;SDS011;19433;51.292;6.868;2023-08-06T06:43:09;1.30;;;1.10;;
33074;SDS011;19433;51.292;6.868;2023-08-06T06:45:34;1.30;;;1.20;;
33074;SDS011;19433;51.292;6.868;2023-08-06T06:47:59;1.40;;;1.00;;
33074;SDS011;19433;51.292;6.868;2023-08-06T06:50:25;0.90;;;0.90;;
33074;SDS011;19433;51.292;6.868;2023-08-06T06:52:51;1.27;;;0.97;;
33074;SDS011;19433;51.292;6.868;2023-08-06T06:55:17;2.43;;;1.27;;
33074;SDS011;19433;51.292;6.868;2023-08-06T06:57:42;1.73;;;1.10;;
33074;SDS011;19433;51.292;6.868;2023-08-06T07:00:08;0.90;;;0.90;;
33074;SDS011;19433;51.292;6.868;2023-08-06T07:02:33;1.47;;;1.20;;
33074;SDS011;19433;51.292;6.868;2023-08-06T07:04:59;1.03;;;0.80;;
33074;SDS011;19433;51.292;6.868;2023-08-06T07:07:24;1.43;;;1.33;;
33074;SDS011;19433;51.292;6.868;2023-08-06T07:09:49;1.07;;;0.97;;
33074;SDS011;19433;51.292;6.868;2023-08-06T07:12:15;2.33;;;1.10;;
33074;SDS011;19433;51.292;6.868;2023-08-06T07:14:40;3.03;;;0.90;;
33074;SDS011;19433;51.292;6.868;2023-08-06T07:17:07;1.57;;;1.00;;
33074;SDS011;19433;51.292;6.868;2023-08-06T07:19:32;1.03;;;1.03;;
33074;SDS011;19433;51.292;6.868;2023-08-06T07:21:58;1.10;;;1.03;;
33074;SDS011;19433;51.292;6.868;2023-08-06T07:24:23;1.07;;;0.90;;
33074;SDS011;19433;51.292;6.868;2023-08-06T07:26:48;1.10;;;1.00;;
33074;SDS011;19433;51.292;6.868;2023-08-06T07:29:13;0.90;;;0.77;;
33074;SDS011;19433;51.292;6.868;2023-08-06T07:31:44;0.90;;;0.77;;
33074;SDS011;19433;51.292;6.868;2023-08-06T07:34:09;0.60;;;0.60;;
33074;SDS011;19433;51.292;6.868;2023-08-06T07:36:35;0.63;;;0.60;;
33074;SDS011;19433;51.292;6.868;2023-08-06T07:39:00;0.73;;;0.73;;
33074;SDS011;19433;51.292;6.868;2023-08-06T07:41:25;2.07;;;0.63;;
33074;SDS011;19433;51.292;6.868;2023-08-06T07:43:50;0.90;;;0.90;;
33074;SDS011;19433;51.292;6.868;2023-08-06T07:46:16;1.40;;;0.87;;
33074;SDS011;19433;51.292;6.868;2023-08-06T07:48:42;1.20;;;1.10;;
33074;SDS011;19433;51.292;6.868;2023-08-06T07:51:07;0.60;;;0.60;;
33074;SDS011;19433;51.292;6.868;2023-08-06T07:53:32;0.70;;;0.70;;
33074;SDS011;19433;51.292;6.868;2023-08-06T07:55:58;0.97;;;0.80;;
33074;SDS011;19433;51.292;6.868;2023-08-06T07:58:24;1.20;;;1.03;;
33074;SDS011;19433;51.292;6.868;2023-08-06T08:00:51;1.27;;;1.17;;
33074;SDS011;19433;51.292;6.868;2023-08-06T08:03:16;1.20;;;1.10;;
33074;SDS011;19433;51.292;6.868;2023-08-06T08:05:42;0.90;;;0.90;;
33074;SDS011;19433;51.292;6.868;2023-08-06T08:08:08;0.87;;;0.87;;
33074;SDS011;19433;51.292;6.868;2023-08-06T08:10:34;0.90;;;0.90;;
33074;SDS011;19433;51.292;6.868;2023-08-06T08:13:03;2.40;;;0.80;;
33074;SDS011;19433;51.292;6.868;2023-08-06T08:15:29;0.80;;;0.80;;
33074;SDS011;19433;51.292;6.868;2023-08-06T08:17:55;1.10;;;0.80;;
33074;SDS011;19433;51.292;6.868;2023-08-06T08:20:21;1.87;;;1.50;;
33074;SDS011;19433;51.292;6.868;2023-08-06T08:22:46;1.50;;;0.97;;
33074;SDS011;19433;51.292;6.868;2023-08-06T08:25:17;1.70;;;0.80;;
33074;SDS011;19433;51.292;6.868;2023-08-06T08:27:42;1.20;;;1.00;;
33074;SDS011;19433;51.292;6.868;2023-08-06T08:30:08;1.27;;;1.17;;
33074;SDS011;19433;51.292;6.868;2023-08-06T08:32:33;1.60;;;1.50;;
33074;SDS011;19433;51.292;6.868;2023-08-06T08:34:59;1.63;;;1.27;;
33074;SDS011;19433;51.292;6.868;2023-08-06T08:37:25;1.57;;;1.47;;
33074;SDS011;19433;51.292;6.868;2023-08-06T08:39:50;1.93;;;1.70;;
33074;SDS011;19433;51.292;6.868;2023-08-06T08:42:15;1.57;;;1.13;;
33074;SDS011;19433;51.292;6.868;2023-08-06T08:44:42;1.80;;;1.70;;
33074;SDS011;19433;51.292;6.868;2023-08-06T08:47:07;1.70;;;1.60;;
33074;SDS011;19433;51.292;6.868;2023-08-06T08:49:35;1.43;;;1.33;;
33074;SDS011;19433;51.292;6.868;2023-08-06T08:52:02;1.93;;;1.73;;
33074;SDS011;19433;51.292;6.868;2023-08-06T08:54:30;1.60;;;1.50;;
33074;SDS011;19433;51.292;6.868;2023-08-06T08:56:57;1.40;;;1.40;;
33074;SDS011;19433;51.292;6.868;2023-08-06T08:59:22;1.33;;;1.23;;
33074;SDS011;19433;51.292;6.868;2023-08-06T09:01:48;1.50;;;1.30;;
33074;SDS011;19433;51.292;6.868;2023-08-06T09:04:17;1.40;;;1.30;;
33074;SDS011;19433;51.292;6.868;2023-08-06T09:06:42;3.57;;;1.60;;
33074;SDS011;19433;51.292;6.868;2023-08-06T09:09:12;1.23;;;1.13;;
33074;SDS011;19433;51.292;6.868;2023-08-06T09:11:43;1.53;;;1.43;;
33074;SDS011;19433;51.292;6.868;2023-08-06T09:14:09;1.43;;;1.20;;
33074;SDS011;19433;51.292;6.868;2023-08-06T09:16:35;1.57;;;1.47;;
33074;SDS011;19433;51.292;6.868;2023-08-06T09:19:10;2.30;;;2.10;;
33074;SDS011;19433;51.292;6.868;2023-08-06T09:21:44;2.70;;;2.20;;
33074;SDS011;19433;51.292;6.868;2023-08-06T09:24:13;2.80;;;2.60;;
33074;SDS011;19433;51.292;6.868;2023-08-06T09:26:40;4.70;;;3.03;;
33074;SDS011;19433;51.292;6.868;2023-08-06T09:29:07;3.67;;;3.37;;
33074;SDS011;19433;51.292;6.868;2023-08-06T09:31:39;4.27;;;3.30;;
33074;SDS011;19433;51.292;6.868;2023-08-06T09:34:12;4.00;;;2.90;;
33074;SDS011;19433;51.292;6.868;2023-08-06T09:36:51;3.50;;;2.93;;
33074;SDS011;19433;51.292;6.868;2023-08-06T09:39:21;2.50;;;2.30;;
33074;SDS011;19433;51.292;6.868;2023-08-06T09:41:52;5.13;;;2.90;;
33074;SDS011;19433;51.292;6.868;2023-08-06T09:44:21;3.03;;;2.50;;
33074;SDS011;19433;51.292;6.868;2023-08-06T09:46:49;3.00;;;2.03;;
33074;SDS011;19433;51.292;6.868;2023-08-06T09:49:19;1.90;;;1.73;;
33074;SDS011;19433;51.292;6.868;2023-08-06T09:51:46;3.37;;;2.23;;
33074;SDS011;19433;51.292;6.868;2023-08-06T09:54:16;1.90;;;1.80;;
33074;SDS011;19433;51.292;6.868;2023-08-06T09:56:42;3.10;;;2.40;;
33074;SDS011;19433;51.292;6.868;2023-08-06T09:59:08;2.67;;;2.47;;
33074;SDS011;19433;51.292;6.868;2023-08-06T10:01:34;4.20;;;3.07;;
33074;SDS011;19433;51.292;6.868;2023-08-06T10:04:00;2.43;;;2.33;;
33074;SDS011;19433;51.292;6.868;2023-08-06T10:06:28;3.10;;;2.90;;
33074;SDS011;19433;51.292;6.868;2023-08-06T10:08:54;2.30;;;2.10;;
33074;SDS011;19433;51.292;6.868;2023-08-06T10:11:20;2.87;;;2.67;;
33074;SDS011;19433;51.292;6.868;2023-08-06T10:13:47;5.17;;;2.40;;
33074;SDS011;19433;51.292;6.868;2023-08-06T10:16:13;2.50;;;2.30;;
33074;SDS011;19433;51.292;6.868;2023-08-06T10:18:39;3.10;;;2.77;;
33074;SDS011;19433;51.292;6.868;2023-08-06T10:21:07;3.97;;;3.20;;
33074;SDS011;19433;51.292;6.868;2023-08-06T10:23:33;3.30;;;2.80;;
33074;SDS011;19433;51.292;6.868;2023-08-06T10:26:03;3.17;;;2.90;;
33074;SDS011;19433;51.292;6.868;2023-08-06T10:28:38;2.17;;;2.03;;
33074;SDS011;19433;51.292;6.868;2023-08-06T10:34:12;6.33;;;3.00;;
33074;SDS011;19433;51.292;6.868;2023-08-06T10:36:41;3.60;;;2.70;;
33074;SDS011;19433;51.292;6.868;2023-08-06T10:39:06;2.77;;;2.57;;
33074;SDS011;19433;51.292;6.868;2023-08-06T10:41:38;2.73;;;1.97;;
33074;SDS011;19433;51.292;6.868;2023-08-06T10:44:09;1.83;;;1.73;;
33074;SDS011;19433;51.292;6.868;2023-08-06T10:46:36;1.80;;;1.40;;
33074;SDS011;19433;51.292;6.868;2023-08-06T10:49:03;2.63;;;2.20;;
33074;SDS011;19433;51.292;6.868;2023-08-06T10:51:49;2.13;;;2.00;;
33074;SDS011;19433;51.292;6.868;2023-08-06T10:54:15;1.50;;;1.30;;
33074;SDS011;19433;51.292;6.868;2023-08-06T10:56:48;1.27;;;1.10;;
33074;SDS011;19433;51.292;6.868;2023-08-06T10:59:14;1.43;;;1.33;;
33074;SDS011;19433;51.292;6.868;2023-08-06T11:01:40;1.33;;;1.33;;
33074;SDS011;19433;51.292;6.868;2023-08-06T11:04:06;1.40;;;1.30;;
33074;SDS011;19433;51.292;6.868;2023-08-06T11:09:53;1.20;;;1.10;;
33074;SDS011;19433;51.292;6.868;2023-08-06T11:12:27;1.30;;;1.20;;
33074;SDS011;19433;51.292;6.868;2023-08-06T11:14:53;3.03;;;2.83;;
33074;SDS011;19433;51.292;6.868;2023-08-06T11:17:18;1.20;;;1.10;;
33074;SDS011;19433;51.292;6.868;2023-08-06T11:19:44;1.80;;;1.70;;
33074;SDS011;19433;51.292;6.868;2023-08-06T11:28:55;1.90;;;1.80;;
33074;SDS011;19433;51.292;6.868;2023-08-06T11:31:20;2.33;;;1.80;;
33074;SDS011;19433;51.292;6.868;2023-08-06T11:33:46;1.93;;;1.83;;
33074;SDS011;19433;51.292;6.868;2023-08-06T11:38:55;2.43;;;2.27;;
33074;SDS011;19433;51.292;6.868;2023-08-06T11:41:25;3.60;;;1.83;;
33074;SDS011;19433;51.292;6.868;2023-08-06T11:43:55;2.80;;;2.60;;
33074;SDS011;19433;51.292;6.868;2023-08-06T11:49:20;2.77;;;2.57;;
33074;SDS011;19433;51.292;6.868;2023-08-06T11:51:47;2.50;;;2.30;;
33074;SDS011;19433;51.292;6.868;2023-08-06T11:56:55;2.50;;;2.30;;
33074;SDS011;19433;51.292;6.868;2023-08-06T11:59:20;2.83;;;2.63;;
33074;SDS011;19433;51.292;6.868;2023-08-06T12:07:19;3.10;;;2.90;;
33074;SDS011;19433;51.292;6.868;2023-08-06T12:24:05;2.33;;;2.23;;
33074;SDS011;19433;51.292;6.868;2023-08-06T12:26:33;2.63;;;2.43;;
33074;SDS011;19433;51.292;6.868;2023-08-06T12:28:58;1.87;;;1.73;;
33074;SDS011;19433;51.292;6.868;2023-08-06T12:34:37;2.40;;;2.20;;
33074;SDS011;19433;51.292;6.868;2023-08-06T12:37:06;2.13;;;2.03;;
33074;SDS011;19433;51.292;6.868;2023-08-06T12:42:17;1.90;;;1.80;;
33074;SDS011;19433;51.292;6.868;2023-08-06T12:53:30;2.30;;;2.20;;
33074;SDS011;19433;51.292;6.868;2023-08-06T12:55:55;2.27;;;2.17;;
33074;SDS011;19433;51.292;6.868;2023-08-06T12:58:20;2.30;;;2.10;;
33074;SDS011;19433;51.292;6.868;2023-08-06T13:00:46;1.77;;;1.67;;
33074;SDS011;19433;51.292;6.868;2023-08-06T13:03:11;3.00;;;2.80;;
33074;SDS011;19433;51.292;6.868;2023-08-06T13:05:37;2.60;;;2.43;;
33074;SDS011;19433;51.292;6.868;2023-08-06T13:08:02;1.93;;;1.73;;
33074;SDS011;19433;51.292;6.868;2023-08-06T13:10:28;2.33;;;2.13;;
33074;SDS011;19433;51.292;6.868;2023-08-06T13:12:54;2.37;;;2.17;;
33074;SDS011;19433;51.292;6.868;2023-08-06T13:15:20;2.20;;;2.00;;
33074;SDS011;19433;51.292;6.868;2023-08-06T13:17:46;2.23;;;2.10;;
33074;SDS011;19433;51.292;6.868;2023-08-06T13:20:12;2.23;;;2.13;;
33074;SDS011;19433;51.292;6.868;2023-08-06T13:22:37;2.37;;;2.27;;
33074;SDS011;19433;51.292;6.868;2023-08-06T13:25:03;2.53;;;2.33;;
33074;SDS011;19433;51.292;6.868;2023-08-06T13:27:28;3.20;;;1.70;;
33074;SDS011;19433;51.292;6.868;2023-08-06T13:29:53;2.07;;;1.93;;
33074;SDS011;19433;51.292;6.868;2023-08-06T13:32:19;1.80;;;1.70;;
33074;SDS011;19433;51.292;6.868;2023-08-06T13:34:44;2.50;;;2.40;;
33074;SDS011;19433;51.292;6.868;2023-08-06T13:37:09;1.80;;;1.70;;
33074;SDS011;19433;51.292;6.868;2023-08-06T13:39:35;2.20;;;2.00;;
33074;SDS011;19433;51.292;6.868;2023-08-06T13:42:01;1.53;;;1.43;;
33074;SDS011;19433;51.292;6.868;2023-08-06T13:44:26;2.53;;;2.33;;
33074;SDS011;19433;51.292;6.868;2023-08-06T13:46:51;2.10;;;2.00;;
33074;SDS011;19433;51.292;6.868;2023-08-06T13:49:17;2.90;;;2.30;;
33074;SDS011;19433;51.292;6.868;2023-08-06T13:51:42;2.23;;;2.00;;
33074;SDS011;19433;51.292;6.868;2023-08-06T13:54:07;3.20;;;2.10;;
33074;SDS011;19433;51.292;6.868;2023-08-06T13:56:36;2.93;;;2.37;;
33074;SDS011;19433;51.292;6.868;2023-08-06T13:59:02;3.20;;;2.20;;
33074;SDS011;19433;51.292;6.868;2023-08-06T14:01:28;2.00;;;1.80;;
33074;SDS011;19433;51.292;6.868;2023-08-06T14:03:53;2.60;;;2.17;;
33074;SDS011;19433;51.292;6.868;2023-08-06T14:06:19;2.83;;;2.30;;
33074;SDS011;19433;51.292;6.868;2023-08-06T14:08:44;2.70;;;2.10;;
33074;SDS011;19433;51.292;6.868;2023-08-06T14:11:09;3.80;;;2.70;;
33074;SDS011;19433;51.292;6.868;2023-08-06T14:13:35;1.80;;;1.70;;
33074;SDS011;19433;51.292;6.868;2023-08-06T14:16:00;4.07;;;1.60;;
33074;SDS011;19433;51.292;6.868;2023-08-06T14:18:26;2.03;;;1.90;;
33074;SDS011;19433;51.292;6.868;2023-08-06T14:20:52;2.67;;;2.47;;
33074;SDS011;19433;51.292;6.868;2023-08-06T14:23:18;2.30;;;2.10;;
33074;SDS011;19433;51.292;6.868;2023-08-06T14:25:43;2.20;;;1.40;;
33074;SDS011;19433;51.292;6.868;2023-08-06T14:28:08;1.70;;;1.60;;
33074;SDS011;19433;51.292;6.868;2023-08-06T14:30:34;2.10;;;2.00;;
33074;SDS011;19433;51.292;6.868;2023-08-06T14:33:02;2.43;;;1.60;;
33074;SDS011;19433;51.292;6.868;2023-08-06T14:35:28;1.83;;;1.70;;
33074;SDS011;19433;51.292;6.868;2023-08-06T14:37:53;2.27;;;1.53;;
33074;SDS011;19433;51.292;6.868;2023-08-06T14:40:18;1.90;;;1.47;;
33074;SDS011;19433;51.292;6.868;2023-08-06T14:42:44;2.27;;;2.07;;
33074;SDS011;19433;51.292;6.868;2023-08-06T14:45:09;4.30;;;2.27;;
33074;SDS011;19433;51.292;6.868;2023-08-06T14:47:34;1.80;;;1.70;;
33074;SDS011;19433;51.292;6.868;2023-08-06T14:50:00;2.53;;;1.93;;
33074;SDS011;19433;51.292;6.868;2023-08-06T14:52:25;1.90;;;1.80;;
33074;SDS011;19433;51.292;6.868;2023-08-06T14:54:50;1.90;;;1.80;;
33074;SDS011;19433;51.292;6.868;2023-08-06T14:57:17;1.80;;;1.70;;
33074;SDS011;19433;51.292;6.868;2023-08-06T14:59:42;2.20;;;1.60;;
33074;SDS011;19433;51.292;6.868;2023-08-06T15:02:08;3.30;;;1.37;;
33074;SDS011;19433;51.292;6.868;2023-08-06T15:04:33;1.93;;;1.67;;
33074;SDS011;19433;51.292;6.868;2023-08-06T15:06:58;1.90;;;1.57;;
33074;SDS011;19433;51.292;6.868;2023-08-06T15:09:24;2.63;;;1.53;;
33074;SDS011;19433;51.292;6.868;2023-08-06T15:11:49;2.30;;;1.57;;
33074;SDS011;19433;51.292;6.868;2023-08-06T15:14:14;2.80;;;1.40;;
33074;SDS011;19433;51.292;6.868;2023-08-06T15:16:40;1.20;;;1.10;;
33074;SDS011;19433;51.292;6.868;2023-08-06T15:19:05;1.70;;;1.30;;
33074;SDS011;19433;51.292;6.868;2023-08-06T15:21:31;1.53;;;1.40;;
33074;SDS011;19433;51.292;6.868;2023-08-06T15:23:56;2.03;;;1.93;;
33074;SDS011;19433;51.292;6.868;2023-08-06T15:26:22;1.40;;;1.30;;
33074;SDS011;19433;51.292;6.868;2023-08-06T15:28:47;1.80;;;1.70;;
33074;SDS011;19433;51.292;6.868;2023-08-06T15:31:12;1.53;;;1.30;;
33074;SDS011;19433;51.292;6.868;2023-08-06T15:33:37;2.40;;;1.50;;
33074;SDS011;19433;51.292;6.868;2023-08-06T15:36:03;1.83;;;1.73;;
33074;SDS011;19433;51.292;6.868;2023-08-06T15:38:29;1.53;;;1.43;;
33074;SDS011;19433;51.292;6.868;2023-08-06T15:40:54;1.43;;;1.33;;